Time;durP1;ratioP1;P1;durP2;ratioP2;P2;SDS_P1;SDS_P2;PMS_P1;PMS_P2;Temp;Humidity;BMP_temperature;BMP_pressure;BME280_temperature;BME280_humidity;BME280_pressure;Samples;Min_cycle;Max_cycle;Signal;HPM_P1;HPM_P2
2021/01/16 00:01:47;;;;;;;13.10;7.40;;;;;;;0.02;55.00;94285.69;5134927;27;20176;-75
2021/01/16 00:04:13;;;;;;;12.93;7.80;;;;;;;0.07;54.38;94308.44;5134805;27;20169;-74
2021/01/16 00:06:38;;;;;;;18.43;7.63;;;;;;;-0.06;55.42;94310.78;5134850;27;20180;-75
2021/01/16 00:09:04;;;;;;;13.87;7.47;;;;;;;0.07;55.52;94311.84;5134797;27;20199;-75
2021/01/16 00:11:30;;;;;;;12.30;8.10;;;;;;;0.06;54.78;94307.69;5134924;27;20195;-74
2021/01/16 00:13:55;;;;;;;12.07;7.67;;;;;;;0.14;53.45;94303.56;5134857;27;20683;-74
2021/01/16 00:16:21;;;;;;;14.87;6.83;;;;;;;0.16;53.84;94299.56;5134721;27;20557;-74
2021/01/16 00:18:46;;;;;;;12.13;7.57;;;;;;;0.23;53.42;94293.94;5134720;27;20177;-75
2021/01/16 00:21:12;;;;;;;9.60;6.07;;;;;;;0.21;52.78;94281.09;5134426;27;20641;-74
2021/01/16 00:23:37;;;;;;;11.50;6.30;;;;;;;0.30;52.33;94280.41;5134645;27;20200;-74
2021/01/16 00:26:03;;;;;;;11.47;6.80;;;;;;;0.34;52.06;94279.53;5134312;27;20173;-74
2021/01/16 00:28:30;;;;;;;14.30;7.00;;;;;;;0.22;52.34;94269.50;5134656;27;20189;-74
2021/01/16 00:30:56;;;;;;;11.80;6.38;;;;;;;-0.02;52.90;94284.72;5133187;27;20177;-74
2021/01/16 00:33:31;;;;;;;10.40;6.18;;;;;;;0.18;53.52;94276.44;5134443;27;20169;-74
2021/01/16 00:35:57;;;;;;;11.38;6.93;;;;;;;0.23;53.92;94278.97;5133829;27;20169;-73
2021/01/16 00:38:26;;;;;;;7.80;5.23;;;;;;;0.16;53.05;94278.56;5134439;27;20561;-75
2021/01/16 00:40:53;;;;;;;8.65;5.53;;;;;;;0.28;53.50;94274.66;5134002;27;20173;-74
2021/01/16 00:43:18;;;;;;;8.77;5.65;;;;;;;0.35;52.81;94267.19;5115990;27;20208;-75
2021/01/16 00:45:44;;;;;;;11.33;6.20;;;;;;;0.24;52.21;94272.66;5133982;27;20173;-74
2021/01/16 00:48:14;;;;;;;9.70;5.38;;;;;;;0.26;52.36;94267.88;5115777;27;20173;-74
2021/01/16 00:50:40;;;;;;;8.40;4.90;;;;;;;0.19;52.55;94262.25;5134028;27;20192;-74
2021/01/16 00:53:06;;;;;;;8.18;5.35;;;;;;;0.28;52.41;94264.16;5115637;27;20169;-74
2021/01/16 00:55:31;;;;;;;5.30;4.77;;;;;;;0.41;51.45;94263.38;5133973;27;20234;-75
2021/01/16 00:57:57;;;;;;;6.63;4.40;;;;;;;-0.10;51.66;94262.56;5133909;27;20212;-74
2021/01/16 01:00:24;;;;;;;6.37;4.50;;;;;;;0.05;52.15;94264.09;5134084;27;20277;-75
2021/01/16 01:02:50;;;;;;;10.02;4.68;;;;;;;0.31;51.80;94266.97;5133585;27;20208;-74
2021/01/16 01:05:17;;;;;;;7.47;4.53;;;;;;;0.32;50.19;94259.88;5133786;27;20185;-74
2021/01/16 01:07:49;;;;;;;6.78;4.68;;;;;;;0.38;50.27;94267.34;5133499;27;20173;-74
2021/01/16 01:10:44;;;;;;;5.93;4.35;;;;;;;0.18;50.72;94265.16;5115297;27;20234;-74
2021/01/16 01:13:10;;;;;;;9.20;4.93;;;;;;;0.19;50.89;94264.09;5115149;27;20637;-74
2021/01/16 01:15:36;;;;;;;7.47;4.87;;;;;;;0.34;50.42;94260.34;5115416;27;20181;-74
2021/01/16 01:18:02;;;;;;;7.50;4.67;;;;;;;0.25;50.86;94261.06;5115088;27;20185;-74
2021/01/16 01:20:30;;;;;;;9.63;4.13;;;;;;;0.34;50.84;94257.72;5124966;27;20230;-74
2021/01/16 01:22:56;;;;;;;5.45;3.70;;;;;;;0.38;50.49;94254.22;5114796;27;20207;-74
2021/01/16 01:25:22;;;;;;;4.97;3.58;;;;;;;0.17;51.27;94260.97;5133457;27;20181;-74
2021/01/16 01:27:51;;;;;;;5.17;4.00;;;;;;;0.24;50.66;94269.25;5114843;27;20659;-74
2021/01/16 01:30:18;;;;;;;6.22;3.72;;;;;;;0.15;50.18;94261.28;5133284;27;20180;-74
2021/01/16 01:32:43;;;;;;;5.13;3.78;;;;;;;0.44;50.63;94253.03;5132986;27;20181;-74
2021/01/16 01:35:09;;;;;;;6.57;4.10;;;;;;;0.39;49.80;94244.50;5133224;27;20169;-74
2021/01/16 01:37:41;;;;;;;5.43;3.67;;;;;;;0.41;50.23;94248.38;5132783;27;20217;-74
2021/01/16 01:40:09;;;;;;;8.60;4.50;;;;;;;0.38;50.11;94240.31;5131924;27;20538;-74
2021/01/16 01:42:35;;;;;;;5.88;3.90;;;;;;;0.23;49.97;94247.47;5114553;27;20219;-74
2021/01/16 01:45:00;;;;;;;6.67;3.87;;;;;;;0.31;49.97;94242.56;5114295;27;20185;-74
2021/01/16 01:47:26;;;;;;;5.20;3.93;;;;;;;0.32;50.04;94242.28;5132609;27;20180;-74
2021/01/16 01:49:51;;;;;;;6.17;4.33;;;;;;;0.35;49.69;94239.06;5114401;27;20188;-74
2021/01/16 01:52:17;;;;;;;5.37;4.43;;;;;;;0.33;50.06;94235.16;5114396;27;20238;-75
2021/01/16 01:54:42;;;;;;;5.47;3.87;;;;;;;0.43;49.57;94230.47;5114325;27;20176;-74
2021/01/16 01:57:08;;;;;;;6.90;3.73;;;;;;;0.20;49.89;94231.50;5114534;27;20175;-74
2021/01/16 01:59:35;;;;;;;7.40;4.17;;;;;;;0.15;50.06;94224.50;5114307;27;20177;-74
2021/01/16 02:02:01;;;;;;;6.22;4.65;;;;;;;0.31;49.68;94234.69;5114234;27;20169;-74
2021/01/16 02:04:28;;;;;;;7.57;4.70;;;;;;;0.22;50.16;94231.97;5114235;27;20188;-75
2021/01/16 02:06:54;;;;;;;5.43;4.35;;;;;;;0.37;50.21;94225.63;5132585;27;20667;-74
2021/01/16 02:09:19;;;;;;;6.53;4.63;;;;;;;0.43;49.97;94235.72;5114177;27;20169;-74
2021/01/16 02:11:45;;;;;;;5.57;3.80;;;;;;;0.18;49.56;94234.44;5132444;27;20189;-74
2021/01/16 02:14:10;;;;;;;7.70;4.80;;;;;;;0.30;49.42;94228.66;5132598;27;20168;-75
2021/01/16 02:16:44;;;;;;;7.10;4.40;;;;;;;0.49;49.54;94233.75;5132282;27;20169;-75
2021/01/16 02:19:09;;;;;;;6.55;3.78;;;;;;;0.43;48.17;94225.22;5132603;27;20173;-75
2021/01/16 02:21:37;;;;;;;7.10;3.83;;;;;;;0.33;49.57;94228.06;5113741;27;20177;-75
2021/01/16 02:24:06;;;;;;;5.72;4.00;;;;;;;0.24;48.78;94220.13;5114406;27;20201;-75
2021/01/16 02:26:42;;;;;;;6.68;3.90;;;;;;;0.20;50.38;94227.03;5131068;28;20176;-75
2021/01/16 02:29:10;;;;;;;6.65;4.55;;;;;;;0.34;50.61;94229.66;5131316;28;20173;-74
2021/01/16 02:31:59;;;;;;;7.75;4.35;;;;;;;0.23;50.96;94236.97;5113873;28;20665;-74
2021/01/16 02:34:27;;;;;;;6.68;4.78;;;;;;;0.22;50.72;94221.47;5114267;28;20640;-75
2021/01/16 02:37:14;;;;;;;5.32;3.95;;;;;;;0.25;51.08;94234.03;5120381;28;20259;-74
2021/01/16 02:39:58;;;;;;;6.47;3.90;;;;;;;0.33;50.84;94230.69;5132519;28;20531;-74
2021/01/16 02:42:44;;;;;;;8.18;4.80;;;;;;;0.28;51.49;94236.06;5132116;28;20193;-74
2021/01/16 02:45:12;;;;;;;8.25;4.40;;;;;;;0.03;50.72;94219.00;5128421;28;20251;-74
2021/01/16 02:47:46;;;;;;;6.53;4.20;;;;;;;0.31;51.12;94229.44;5141168;27;20633;-74
2021/01/16 02:50:12;;;;;;;5.25;4.28;;;;;;;0.33;52.02;94227.28;5148125;27;20176;-74
2021/01/16 02:52:44;;;;;;;7.00;5.17;;;;;;;0.29;52.40;94221.88;5124137;28;20206;-74
2021/01/16 02:55:10;;;;;;;6.88;4.63;;;;;;;0.29;52.71;94228.97;5130670;28;20195;-75
2021/01/16 02:57:36;;;;;;;7.03;4.23;;;;;;;0.28;53.41;94227.41;5132256;28;20185;-75
2021/01/16 03:00:03;;;;;;;8.43;5.50;;;;;;;0.22;53.34;94224.09;5133561;27;20161;-75
2021/01/16 03:02:28;;;;;;;6.50;4.75;;;;;;;0.16;54.98;94231.31;5136268;27;20197;-75
2021/01/16 03:04:54;;;;;;;8.47;5.17;;;;;;;0.24;53.80;94224.59;5135929;27;20691;-76
2021/01/16 03:07:19;;;;;;;6.60;4.93;;;;;;;0.31;53.79;94227.59;5136180;27;20314;-75
2021/01/16 03:09:45;;;;;;;7.40;5.83;;;;;;;0.16;54.80;94226.06;5128834;27;20176;-75
2021/01/16 03:12:11;;;;;;;7.33;5.20;;;;;;;0.02;55.12;94214.81;5134926;27;20165;-75
2021/01/16 03:14:36;;;;;;;10.13;5.43;;;;;;;0.11;54.97;94228.78;5136148;27;20201;-75
2021/01/16 03:17:12;;;;;;;6.27;4.73;;;;;;;0.31;54.38;94221.56;5135838;27;20260;-75
2021/01/16 03:19:39;;;;;;;7.80;5.50;;;;;;;0.14;55.88;94227.44;5127185;27;20188;-75
2021/01/16 03:22:21;;;;;;;10.10;6.05;;;;;;;0.09;55.60;94214.41;5135783;27;20257;-76
2021/01/16 03:24:49;;;;;;;9.45;5.80;;;;;;;0.07;56.76;94227.06;5135807;27;20176;-75
2021/01/16 03:27:14;;;;;;;10.63;6.53;;;;;;;-0.03;56.48;94223.56;5135962;27;20234;-75
2021/01/16 03:29:40;;;;;;;11.60;6.17;;;;;;;-0.03;56.79;94215.72;5127273;27;20184;-74
2021/01/16 03:32:06;;;;;;;9.07;6.13;;;;;;;0.13;56.81;94224.03;5151558;27;20169;-75
2021/01/16 03:34:32;;;;;;;11.75;6.60;;;;;;;0.20;56.12;94221.78;5135624;27;20169;-74
2021/01/16 03:36:58;;;;;;;8.73;5.93;;;;;;;-0.11;57.00;94220.88;5146983;27;20212;-75
2021/01/16 03:39:24;;;;;;;10.10;7.28;;;;;;;0.10;57.25;94223.84;5135656;27;20176;-75
2021/01/16 03:41:49;;;;;;;12.50;6.83;;;;;;;0.15;56.90;94213.25;5135288;27;20177;-74
2021/01/16 03:44:15;;;;;;;10.37;6.47;;;;;;;0.20;56.64;94227.03;5135525;27;20196;-75
2021/01/16 03:46:40;;;;;;;15.27;6.93;;;;;;;0.16;56.62;94226.06;5135404;27;20176;-75
2021/01/16 03:49:05;;;;;;;9.73;5.67;;;;;;;0.17;56.84;94221.59;5131246;27;20256;-75
2021/01/16 03:51:31;;;;;;;10.00;6.37;;;;;;;0.26;56.28;94220.59;5135103;27;20173;-75
2021/01/16 03:53:57;;;;;;;14.10;7.10;;;;;;;0.29;56.32;94221.88;5135107;27;20259;-74
2021/01/16 03:56:22;;;;;;;10.77;6.27;;;;;;;0.18;57.08;94226.56;5135252;27;20169;-76
2021/01/16 03:58:48;;;;;;;10.70;5.87;;;;;;;-0.11;56.36;94218.25;5135120;27;20174;-76
2021/01/16 04:01:13;;;;;;;9.97;6.33;;;;;;;-0.08;57.90;94220.28;5135257;27;20165;-76
2021/01/16 04:03:39;;;;;;;9.50;6.60;;;;;;;-0.18;57.89;94226.50;5135046;27;20212;-76
2021/01/16 04:06:04;;;;;;;9.67;6.33;;;;;;;-0.05;57.51;94211.84;5130146;27;20181;-76
2021/01/16 04:08:30;;;;;;;11.53;7.17;;;;;;;0.19;57.42;94220.25;5134817;27;20276;-74
2021/01/16 04:10:55;;;;;;;10.63;6.27;;;;;;;0.02;57.90;94216.69;5134414;27;20161;-74
2021/01/16 04:13:21;;;;;;;10.97;6.10;;;;;;;-0.04;57.43;94216.00;5134700;27;20173;-74
2021/01/16 04:15:46;;;;;;;11.63;6.50;;;;;;;-0.03;57.35;94218.31;5134977;27;20546;-74
2021/01/16 04:18:12;;;;;;;8.77;6.17;;;;;;;-0.14;57.28;94208.34;5131103;27;20189;-75
2021/01/16 04:20:38;;;;;;;11.00;6.97;;;;;;;-0.14;57.27;94218.84;5134613;27;20551;-75
2021/01/16 04:23:03;;;;;;;10.97;7.27;;;;;;;-0.20;56.99;94220.00;5130039;27;20189;-75
2021/01/16 04:25:29;;;;;;;9.20;5.90;;;;;;;-0.06;57.25;94212.88;5134270;27;20173;-74
2021/01/16 04:27:54;;;;;;;12.23;8.07;;;;;;;-0.39;57.44;94202.53;5135008;27;20169;-75
2021/01/16 04:30:20;;;;;;;12.47;7.30;;;;;;;-0.35;57.41;94210.59;5134342;27;20276;-74
2021/01/16 04:32:45;;;;;;;9.90;6.47;;;;;;;-0.34;56.98;94218.19;5134520;27;20173;-75
2021/01/16 04:35:11;;;;;;;10.80;6.83;;;;;;;-0.31;57.92;94216.81;5130330;27;20184;-76
2021/01/16 04:37:37;;;;;;;12.90;7.43;;;;;;;-0.20;57.51;94220.78;5134257;27;20665;-75
2021/01/16 04:40:04;;;;;;;12.10;6.93;;;;;;;-0.19;56.83;94230.19;5134049;27;20241;-75
2021/01/16 04:42:30;;;;;;;12.85;6.32;;;;;;;-0.16;57.14;94236.72;5134086;27;20197;-75
2021/01/16 04:44:55;;;;;;;9.70;6.00;;;;;;;-0.19;57.06;94224.19;5134498;27;20185;-76
2021/01/16 04:47:26;;;;;;;12.07;7.23;;;;;;;-0.19;57.26;94221.56;5115908;27;20212;-76
2021/01/16 04:49:52;;;;;;;10.68;7.32;;;;;;;-0.07;55.81;94224.44;5115944;27;20165;-76
2021/01/16 04:52:24;;;;;;;12.40;7.37;;;;;;;-0.35;55.93;94205.34;5133965;27;20268;-76
2021/01/16 04:54:51;;;;;;;10.25;5.90;;;;;;;-0.12;55.19;94230.56;5132757;27;20637;-75
2021/01/16 04:57:16;;;;;;;11.05;6.10;;;;;;;-0.24;56.15;94224.28;5115207;27;20181;-75
2021/01/16 04:59:42;;;;;;;13.43;7.10;;;;;;;-0.18;56.88;94225.72;5133852;27;20161;-75
2021/01/16 05:02:09;;;;;;;11.70;6.77;;;;;;;-0.35;56.13;94234.19;5132365;27;20208;-76
2021/01/16 05:04:35;;;;;;;12.05;6.68;;;;;;;-0.34;56.21;94233.91;5133707;27;20176;-75
2021/01/16 05:07:01;;;;;;;13.23;7.23;;;;;;;-0.07;55.58;94232.31;5132298;27;20549;-75
2021/01/16 05:09:26;;;;;;;9.70;6.67;;;;;;;-0.11;55.34;94228.75;5115539;27;20173;-75
2021/01/16 05:12:07;;;;;;;11.53;7.20;;;;;;;-0.36;55.91;94241.28;5115249;27;20177;-75
2021/01/16 05:14:40;;;;;;;12.52;7.28;;;;;;;-0.24;55.80;94237.41;5115265;27;20177;-75
2021/01/16 05:17:05;;;;;;;12.55;7.13;;;;;;;-0.21;55.77;94236.81;5115045;27;20181;-75
2021/01/16 05:19:32;;;;;;;9.77;6.87;;;;;;;-0.19;55.58;94247.78;5114628;27;20722;-75
2021/01/16 05:21:57;;;;;;;10.48;6.47;;;;;;;-0.22;55.05;94241.28;5132316;27;20226;-75
2021/01/16 05:24:23;;;;;;;10.77;6.63;;;;;;;-0.38;55.14;94248.69;5114853;27;20181;-75
2021/01/16 05:27:07;;;;;;;11.83;7.10;;;;;;;-0.40;55.56;94245.56;5133500;27;20175;-75
2021/01/16 05:29:34;;;;;;;12.60;7.10;;;;;;;-0.40;55.27;94240.31;5107416;27;20165;-74
2021/01/16 05:32:01;;;;;;;12.15;7.00;;;;;;;-0.43;54.94;94240.13;5133118;27;20173;-74
2021/01/16 05:34:27;;;;;;;11.45;6.60;;;;;;;-0.43;54.58;94245.38;5132051;27;20602;-74
2021/01/16 05:36:53;;;;;;;11.07;6.70;;;;;;;-0.38;55.24;94253.94;5132515;27;20216;-75
2021/01/16 05:39:19;;;;;;;10.40;6.33;;;;;;;-0.36;55.81;94236.03;5133189;27;20168;-75
2021/01/16 05:41:46;;;;;;;9.13;6.45;;;;;;;-0.43;55.61;94240.13;5133278;27;20233;-75
2021/01/16 05:44:11;;;;;;;16.10;6.45;;;;;;;-0.57;56.21;94250.59;5131699;27;20208;-74
2021/01/16 05:46:37;;;;;;;13.63;7.43;;;;;;;-0.34;54.91;94251.47;5132994;27;20172;-74
2021/01/16 05:49:03;;;;;;;10.93;6.37;;;;;;;-0.58;56.22;94243.78;5131996;27;20231;-74
2021/01/16 05:51:29;;;;;;;13.52;7.47;;;;;;;-0.84;56.06;94246.88;5132847;27;20176;-74
2021/01/16 05:53:55;;;;;;;11.37;6.93;;;;;;;-0.63;56.32;94249.91;5132576;27;20877;-74
2021/01/16 05:56:21;;;;;;;16.25;7.50;;;;;;;-0.56;55.97;94236.44;5114628;27;20165;-74
2021/01/16 05:58:46;;;;;;;12.73;7.70;;;;;;;-0.82;55.04;94239.50;5132726;27;20185;-77
2021/01/16 06:01:21;;;;;;;10.70;6.73;;;;;;;-0.47;54.23;94234.69;5097353;27;20523;-74
2021/01/16 06:03:51;;;;;;;13.48;7.07;;;;;;;-0.35;53.27;94236.81;5132415;27;20200;-74
2021/01/16 06:06:17;;;;;;;11.15;6.63;;;;;;;-0.44;54.12;94228.09;5131335;27;20225;-74
2021/01/16 06:08:55;;;;;;;11.27;6.77;;;;;;;-0.46;53.30;94235.44;5114275;27;20330;-75
2021/01/16 06:11:21;;;;;;;11.70;6.97;;;;;;;-0.70;52.83;94225.91;5132667;27;20807;-75
2021/01/16 06:13:51;;;;;;;11.33;6.50;;;;;;;-0.62;53.37;94241.00;5131325;27;20333;-75
2021/01/16 06:16:18;;;;;;;12.48;6.57;;;;;;;-0.46;53.62;94235.44;5114294;28;20233;-74
2021/01/16 06:18:52;;;;;;;11.18;6.07;;;;;;;-0.32;51.92;94244.88;5132182;27;20204;-74
2021/01/16 06:21:28;;;;;;;8.18;6.43;;;;;;;-0.32;52.32;94237.00;5114282;28;20259;-74
2021/01/16 06:23:55;;;;;;;10.60;6.47;;;;;;;-0.52;51.88;94250.50;5126214;27;20215;-75
2021/01/16 06:26:21;;;;;;;12.27;7.32;;;;;;;-0.61;53.29;94245.16;5114014;27;20204;-75
2021/01/16 06:28:59;;;;;;;12.17;7.23;;;;;;;-0.53;52.60;94235.84;5132146;27;20219;-75
2021/01/16 06:31:26;;;;;;;12.73;7.28;;;;;;;-0.33;52.16;94226.81;5132407;28;20186;-75
2021/01/16 06:34:09;;;;;;;13.98;7.35;;;;;;;-0.42;51.62;94241.69;5134775;27;20173;-75
2021/01/16 06:36:36;;;;;;;12.23;6.28;;;;;;;-0.41;50.91;94238.75;5131672;27;20691;-76
2021/01/16 06:39:08;;;;;;;11.88;6.75;;;;;;;-0.52;50.72;94240.00;5138995;27;20177;-75
2021/01/16 06:41:37;;;;;;;11.38;6.68;;;;;;;-0.71;51.18;94241.94;5139246;27;20598;-75
2021/01/16 06:44:13;;;;;;;12.90;6.35;;;;;;;-0.62;50.85;94237.56;5138680;27;20196;-75
2021/01/16 06:46:46;;;;;;;10.25;5.90;;;;;;;-0.57;48.94;94243.50;5120846;27;20644;-76
2021/01/16 06:49:22;;;;;;;11.52;5.43;;;;;;;-0.86;48.75;94251.63;5120614;27;20268;-74
2021/01/16 06:51:54;;;;;;;10.63;5.80;;;;;;;-1.12;49.30;94242.63;5139005;27;20176;-74
2021/01/16 06:54:27;;;;;;;10.82;5.50;;;;;;;-0.68;50.06;94251.84;5138899;27;20657;-76
2021/01/16 06:57:12;;;;;;;5.88;4.18;;;;;;;-0.61;48.90;94239.16;5139058;27;20176;-76
2021/01/16 06:59:39;;;;;;;11.20;5.55;;;;;;;-0.48;47.59;94240.22;5120763;27;20173;-75
2021/01/16 07:02:31;;;;;;;11.95;5.45;;;;;;;-0.59;47.64;94253.50;5139147;27;20165;-75
2021/01/16 07:05:06;;;;;;;7.95;5.45;;;;;;;-0.68;48.37;94247.38;5131952;27;20184;-75
2021/01/16 07:07:36;;;;;;;8.85;5.53;;;;;;;-0.82;47.64;94238.72;5138782;27;20641;-75
2021/01/16 07:10:03;;;;;;;8.45;5.35;;;;;;;-0.63;48.01;94257.00;5119845;27;20188;-76
2021/01/16 07:12:29;;;;;;;9.32;5.20;;;;;;;-0.45;48.33;94256.16;5138739;27;20169;-76
2021/01/16 07:14:54;;;;;;;6.63;4.83;;;;;;;-0.44;48.18;94257.72;5139009;27;20263;-76
2021/01/16 07:17:21;;;;;;;6.27;4.63;;;;;;;-0.36;48.07;94243.13;5138960;27;20234;-76
2021/01/16 07:19:47;;;;;;;11.10;5.90;;;;;;;-0.30;48.43;94257.72;5138656;27;20173;-76
2021/01/16 07:22:13;;;;;;;10.23;5.90;;;;;;;-0.34;47.97;94243.59;5138848;27;20189;-76
2021/01/16 07:24:38;;;;;;;11.25;5.72;;;;;;;-0.17;48.78;94261.38;5137033;27;20401;-76
2021/01/16 07:27:04;;;;;;;10.60;5.83;;;;;;;-0.31;48.37;94259.56;5102704;27;20184;-75
2021/01/16 07:29:30;;;;;;;10.95;6.40;;;;;;;-0.52;49.32;94241.84;5137412;27;20173;-74
2021/01/16 07:31:56;;;;;;;10.60;6.50;;;;;;;-0.44;50.03;94243.81;5120324;27;20256;-75
2021/01/16 07:34:22;;;;;;;9.02;6.07;;;;;;;-0.49;50.60;94252.56;5137172;27;20180;-74
2021/01/16 07:36:48;;;;;;;10.13;5.68;;;;;;;-0.52;50.75;94255.75;5126476;27;20299;-74
2021/01/16 07:39:13;;;;;;;15.27;6.97;;;;;;;-0.66;51.20;94252.34;5137324;27;20177;-75
2021/01/16 07:41:39;;;;;;;9.50;5.90;;;;;;;-0.54;51.72;94250.81;5154712;27;20213;-75
2021/01/16 07:44:09;;;;;;;10.40;7.23;;;;;;;-0.86;51.66;94264.72;5137143;27;20232;-77
2021/01/16 07:46:35;;;;;;;12.68;6.85;;;;;;;-0.65;51.59;94259.16;5150654;27;20181;-75
2021/01/16 07:49:05;;;;;;;9.77;6.35;;;;;;;-0.43;51.28;94254.03;5135329;27;20296;-76
2021/01/16 07:51:32;;;;;;;14.30;7.50;;;;;;;-0.46;51.96;94251.97;5134093;27;20539;-75
2021/01/16 07:54:00;;;;;;;10.77;6.75;;;;;;;-0.47;51.45;94254.88;5134326;27;20217;-76
2021/01/16 07:56:25;;;;;;;12.82;6.32;;;;;;;-0.55;51.75;94258.97;5135080;27;20244;-76
2021/01/16 07:59:06;;;;;;;10.10;6.23;;;;;;;-0.68;52.92;94259.72;5133983;27;20263;-74
2021/01/16 08:01:58;;;;;;;11.38;6.38;;;;;;;-0.77;54.07;94258.84;5135216;27;20180;-75
2021/01/16 08:04:36;;;;;;;10.82;6.88;;;;;;;-0.64;54.12;94255.44;5133858;27;20209;-75
2021/01/16 08:07:03;;;;;;;11.90;6.45;;;;;;;-0.46;53.29;94257.22;5133103;27;20177;-74
2021/01/16 08:09:50;;;;;;;10.35;5.68;;;;;;;-0.25;52.27;94262.84;5134778;27;20734;-75
2021/01/16 08:12:20;;;;;;;10.90;7.22;;;;;;;-0.29;53.34;94262.66;5134928;27;20586;-75
2021/01/16 08:14:46;;;;;;;12.82;7.13;;;;;;;-0.44;54.00;94254.31;5132710;27;20183;-75
2021/01/16 08:17:13;;;;;;;13.43;6.63;;;;;;;-0.18;53.57;94265.88;5134744;27;20169;-75
2021/01/16 08:19:49;;;;;;;15.98;7.18;;;;;;;-0.21;53.35;94248.09;5134683;27;20177;-77
2021/01/16 08:22:18;;;;;;;24.67;7.53;;;;;;;-0.16;53.43;94265.59;5149513;27;20161;-74
2021/01/16 08:24:55;;;;;;;11.95;5.78;;;;;;;-0.27;53.81;94273.66;5133203;27;20177;-74
2021/01/16 08:27:23;;;;;;;12.50;7.20;;;;;;;-0.32;54.58;94276.38;5134589;27;20164;-74
2021/01/16 08:29:48;;;;;;;12.00;7.07;;;;;;;-0.34;54.84;94280.34;5133286;27;20264;-75
2021/01/16 08:32:14;;;;;;;12.30;7.37;;;;;;;-0.27;54.90;94283.38;5134508;27;20257;-74
2021/01/16 08:34:49;;;;;;;8.47;6.50;;;;;;;-0.41;55.46;94280.72;5134351;27;20177;-73
2021/01/16 08:37:38;;;;;;;11.93;7.18;;;;;;;-0.42;55.32;94281.78;5134264;27;20295;-74
2021/01/16 08:40:05;;;;;;;12.95;6.80;;;;;;;-0.41;56.18;94293.06;5116048;27;20174;-74
2021/01/16 08:42:31;;;;;;;16.02;7.53;;;;;;;-0.47;55.70;94281.88;5132843;27;20283;-74
2021/01/16 08:44:57;;;;;;;11.63;7.27;;;;;;;-0.80;55.72;94287.16;5133895;27;20714;-74
2021/01/16 08:47:23;;;;;;;10.52;5.90;;;;;;;-0.78;55.16;94292.13;5132909;27;20173;-74
2021/01/16 08:49:48;;;;;;;10.47;5.97;;;;;;;-1.00;55.44;94291.97;5133844;27;20176;-73
2021/01/16 08:52:34;;;;;;;10.40;6.03;;;;;;;-1.13;56.06;94275.91;5132690;27;20642;-73
2021/01/16 08:55:04;;;;;;;10.05;6.18;;;;;;;-1.10;56.08;94285.03;5133136;27;20676;-73
2021/01/16 08:57:33;;;;;;;13.65;6.50;;;;;;;-0.97;55.63;94286.91;5132665;27;20260;-75
2021/01/16 09:00:19;;;;;;;10.95;6.30;;;;;;;-0.77;54.83;94277.97;5115396;27;20615;-75
2021/01/16 09:03:11;;;;;;;10.57;6.32;;;;;;;-0.92;53.50;94283.44;5133292;27;20204;-75
2021/01/16 09:05:37;;;;;;;7.82;4.78;;;;;;;-1.03;53.74;94274.19;5132599;27;20188;-75
2021/01/16 09:08:04;;;;;;;10.13;5.55;;;;;;;-1.00;53.52;94271.00;5133538;27;20680;-75
2021/01/16 09:10:31;;;;;;;10.93;5.78;;;;;;;-1.01;52.72;94275.47;5115297;27;20181;-74
2021/01/16 09:12:58;;;;;;;8.98;5.57;;;;;;;-0.91;53.00;94275.28;5133384;27;20208;-75
2021/01/16 09:15:28;;;;;;;7.80;5.10;;;;;;;-0.76;52.70;94257.75;5133543;27;20180;-74
2021/01/16 09:17:59;;;;;;;9.23;5.55;;;;;;;-0.78;52.19;94262.53;5132097;27;20173;-74
2021/01/16 09:20:25;;;;;;;11.18;5.40;;;;;;;-0.74;51.63;94253.78;5133499;27;20560;-75
2021/01/16 09:22:50;;;;;;;10.73;5.80;;;;;;;-0.57;51.08;94263.69;5114720;27;20250;-74
2021/01/16 09:25:26;;;;;;;10.57;5.30;;;;;;;-0.65;50.38;94259.91;5115162;27;20699;-75
2021/01/16 09:27:52;;;;;;;10.60;5.70;;;;;;;-0.80;51.55;94254.94;5132994;27;20179;-76
2021/01/16 09:30:24;;;;;;;9.95;5.30;;;;;;;-1.02;51.89;94252.94;5133508;27;20575;-74
2021/01/16 09:32:51;;;;;;;8.75;5.78;;;;;;;-1.07;53.30;94253.00;5133005;27;20208;-76
2021/01/16 09:35:36;;;;;;;9.60;5.57;;;;;;;-1.24;52.82;94253.53;5114913;27;20664;-75
2021/01/16 09:38:02;;;;;;;10.45;6.43;;;;;;;-1.13;53.47;94249.69;5132718;27;20744;-76
2021/01/16 09:40:35;;;;;;;10.40;5.50;;;;;;;-0.82;52.41;94239.50;5112069;27;20225;-76
2021/01/16 09:43:02;;;;;;;8.63;5.75;;;;;;;-0.73;51.69;94242.25;5101021;27;20580;-76
2021/01/16 09:45:31;;;;;;;10.45;5.72;;;;;;;-0.61;51.41;94228.66;5103519;27;20188;-76
2021/01/16 09:47:57;;;;;;;10.07;5.65;;;;;;;-0.59;49.83;94222.03;5100884;27;20173;-74
2021/01/16 09:50:25;;;;;;;9.60;5.77;;;;;;;-0.93;49.32;94226.84;5105473;27;20644;-76
2021/01/16 09:52:55;;;;;;;9.38;5.75;;;;;;;-1.01;50.33;94227.50;5095545;28;20185;-76
2021/01/16 09:55:26;;;;;;;7.90;5.43;;;;;;;-1.25;49.58;94225.03;5095269;27;20171;-75
2021/01/16 09:57:51;;;;;;;11.75;5.88;;;;;;;-0.83;49.44;94224.84;5124178;27;20236;-76
2021/01/16 10:00:37;;;;;;;7.80;4.73;;;;;;;-0.62;48.98;94216.59;5103426;27;20180;-74
2021/01/16 10:03:04;;;;;;;9.60;4.95;;;;;;;-0.70;47.72;94212.81;5121711;27;20189;-76
2021/01/16 10:05:40;;;;;;;7.95;4.85;;;;;;;-0.65;47.82;94219.81;5117632;27;20272;-77
2021/01/16 10:08:06;;;;;;;6.32;4.90;;;;;;;-0.73;46.99;94196.88;5110414;28;20602;-74
2021/01/16 10:10:47;;;;;;;7.53;4.78;;;;;;;-0.61;46.38;94207.69;5112148;28;20170;-77
2021/01/16 10:13:32;;;;;;;9.55;5.60;;;;;;;-0.34;46.64;94206.88;5111883;28;20301;-75
2021/01/16 10:15:58;;;;;;;9.25;5.13;;;;;;;-0.31;46.53;94207.09;5112052;28;20173;-73
2021/01/16 10:18:26;;;;;;;8.52;5.38;;;;;;;-0.29;46.36;94197.06;5111592;28;20264;-73
2021/01/16 10:21:03;;;;;;;17.55;5.15;;;;;;;-0.50;43.77;94193.31;5110631;28;20248;-73
2021/01/16 10:23:30;;;;;;;8.70;3.60;;;;;;;-0.13;43.87;94194.13;5111463;28;20220;-75
2021/01/16 10:26:19;;;;;;;7.40;3.65;;;;;;;-0.29;42.36;94183.94;5095143;28;20184;-74
2021/01/16 10:28:48;;;;;;;9.57;3.95;;;;;;;0.24;42.12;94186.00;5124393;27;20337;-73
2021/01/16 10:31:13;;;;;;;7.40;4.10;;;;;;;0.18;42.38;94183.78;5132447;27;20196;-73
2021/01/16 10:33:43;;;;;;;7.60;4.30;;;;;;;-0.03;40.74;94186.06;5096793;28;20653;-73
2021/01/16 10:36:10;;;;;;;11.80;4.43;;;;;;;-0.63;42.27;94179.13;5132201;28;20217;-74
2021/01/16 10:38:46;;;;;;;10.55;4.63;;;;;;;-0.78;42.89;94176.03;5131970;28;20184;-76
2021/01/16 10:41:19;;;;;;;7.28;4.13;;;;;;;-0.78;43.89;94170.78;5132455;28;20168;-75
2021/01/16 10:43:45;;;;;;;7.28;4.30;;;;;;;-0.74;42.81;94162.03;5130931;28;20219;-78
2021/01/16 10:46:22;;;;;;;6.93;4.00;;;;;;;-0.78;43.02;94161.06;5132423;28;20173;-76
2021/01/16 10:48:47;;;;;;;5.90;4.15;;;;;;;-0.73;41.16;94160.97;5132318;28;20566;-76
2021/01/16 10:51:13;;;;;;;6.70;3.93;;;;;;;-0.64;40.82;94148.72;5114049;28;20177;-76
2021/01/16 10:53:40;;;;;;;5.13;3.60;;;;;;;-0.56;40.47;94148.06;5132033;28;20165;-76
2021/01/16 10:56:13;;;;;;;5.20;3.78;;;;;;;-0.47;41.20;94144.72;5132100;28;20215;-78
2021/01/16 10:58:39;;;;;;;5.22;3.17;;;;;;;-0.40;42.01;94130.13;5113883;28;20181;-78
2021/01/16 11:01:04;;;;;;;8.07;3.93;;;;;;;-0.28;40.94;94154.03;5132170;28;20660;-76
2021/01/16 11:03:31;;;;;;;5.83;4.40;;;;;;;-0.57;38.28;94145.69;5132049;28;20226;-75
2021/01/16 11:06:02;;;;;;;5.97;3.65;;;;;;;-0.89;40.66;94149.22;5132121;28;20686;-77
2021/01/16 11:08:29;;;;;;;3.92;3.53;;;;;;;-0.69;40.93;94151.44;5131792;28;20176;-76
2021/01/16 11:10:56;;;;;;;4.68;3.75;;;;;;;-0.49;41.95;94147.66;5113517;28;20168;-77
2021/01/16 11:13:22;;;;;;;4.10;3.72;;;;;;;-0.51;39.88;94136.66;5131947;28;20666;-76
2021/01/16 11:16:16;;;;;;;6.80;3.72;;;;;;;-0.44;40.80;94144.94;5113840;28;20694;-76
2021/01/16 11:18:41;;;;;;;6.15;4.13;;;;;;;-0.11;41.97;94137.69;5129434;28;20209;-76
2021/01/16 11:21:08;;;;;;;10.30;3.67;;;;;;;-0.52;40.22;94135.13;5115223;27;20205;-75
2021/01/16 11:23:45;;;;;;;22.02;4.47;;;;;;;-0.67;40.97;94135.44;5135459;27;20201;-75
2021/01/16 11:26:11;;;;;;;6.68;3.90;;;;;;;-0.40;40.73;94130.13;5135660;27;20176;-76
2021/01/16 11:28:55;;;;;;;6.82;4.15;;;;;;;-0.25;40.39;94133.53;5135462;27;20210;-76
2021/01/16 11:31:29;;;;;;;6.65;4.05;;;;;;;-0.29;41.27;94130.72;5116683;27;20184;-76
2021/01/16 11:34:17;;;;;;;7.88;3.35;;;;;;;-0.66;40.39;94123.88;5135303;27;20173;-75
2021/01/16 11:37:01;;;;;;;6.28;3.90;;;;;;;-0.96;40.53;94123.38;5135161;27;20282;-76
2021/01/16 11:39:42;;;;;;;8.52;3.95;;;;;;;-1.02;40.20;94118.53;5135683;27;20189;-75
2021/01/16 11:42:09;;;;;;;11.60;4.85;;;;;;;-0.91;41.71;94120.66;5135282;27;20169;-78